Time;durP1;ratioP1;P1;durP2;ratioP2;P2;SDS_P1;SDS_P2;PMS_P1;PMS_P2;Temp;Humidity;BMP_temperature;BMP_pressure;BME280_temperature;BME280_humidity;BME280_pressure;Samples;Min_cycle;Max_cycle;Signal;HPM_P1;HPM_P2
2022/01/15 00:01:16;;;;;;;14.45;7.45;;;1.30;79.20;;;;;;5074774;28;20028;-80
2022/01/15 00:03:41;;;;;;;13.32;6.53;;;1.40;79.30;;;;;;5075005;28;20047;-77
2022/01/15 00:06:07;;;;;;;13.77;7.60;;;1.40;79.40;;;;;;5074968;28;20362;-76
2022/01/15 00:08:32;;;;;;;14.52;6.40;;;1.40;79.60;;;;;;5074625;28;20078;-76
2022/01/15 00:10:58;;;;;;;15.90;7.43;;;1.40;79.60;;;;;;5075041;28;20036;-77
2022/01/15 00:13:27;;;;;;;11.68;6.85;;;1.40;79.40;;;;;;5089385;28;20033;-78
2022/01/15 00:16:05;;;;;;;11.55;6.60;;;1.40;79.30;;;;;;5096412;28;20043;-76
2022/01/15 00:18:47;;;;;;;13.88;7.25;;;1.50;79.00;;;;;;5074854;28;20473;-77
2022/01/15 00:21:13;;;;;;;12.45;6.25;;;1.40;78.70;;;;;;5074687;28;20024;-76
2022/01/15 00:23:39;;;;;;;12.93;6.55;;;1.40;78.70;;;;;;5074490;28;20037;-76
2022/01/15 00:26:05;;;;;;;10.73;5.95;;;1.40;78.70;;;;;;5074414;28;20016;-78
2022/01/15 00:28:31;;;;;;;10.38;6.53;;;1.40;78.60;;;;;;5074418;28;20461;-78
2022/01/15 00:30:56;;;;;;;9.57;5.57;;;1.40;78.40;;;;;;5074550;28;20031;-76
2022/01/15 00:33:22;;;;;;;10.95;5.97;;;1.50;78.50;;;;;;5056237;28;20040;-76
2022/01/15 00:35:47;;;;;;;10.20;5.60;;;1.50;78.30;;;;;;5073769;28;20049;-78
2022/01/15 00:38:13;;;;;;;9.88;5.90;;;1.50;78.20;;;;;;5074349;28;20026;-76
2022/01/15 00:40:38;;;;;;;8.65;5.07;;;1.50;77.70;;;;;;5074029;28;20028;-77
2022/01/15 00:43:04;;;;;;;9.63;5.55;;;1.50;77.30;;;;;;5074248;28;20491;-77
2022/01/15 00:45:33;;;;;;;9.95;5.25;;;1.50;77.00;;;;;;5073937;28;20025;-76
2022/01/15 00:47:59;;;;;;;10.23;5.13;;;1.40;77.50;;;;;;5073958;28;20030;-77
2022/01/15 00:50:25;;;;;;;11.40;6.15;;;1.30;77.00;;;;;;5073915;28;20443;-76
2022/01/15 00:52:50;;;;;;;18.02;9.00;;;1.20;77.40;;;;;;5073797;28;20120;-76
2022/01/15 00:55:18;;;;;;;17.08;8.50;;;1.20;77.90;;;;;;5073771;28;20021;-77
2022/01/15 00:57:44;;;;;;;19.65;9.10;;;1.00;78.80;;;;;;5073848;28;20483;-76
2022/01/15 01:00:14;;;;;;;13.63;7.25;;;0.80;79.40;;;;;;5073696;28;20020;-76
2022/01/15 01:02:40;;;;;;;12.18;6.88;;;0.80;79.80;;;;;;5073543;28;20025;-78
2022/01/15 01:05:07;;;;;;;17.17;7.65;;;0.90;80.40;;;;;;5073708;28;20035;-76
2022/01/15 01:07:32;;;;;;;16.63;7.93;;;0.90;80.40;;;;;;5073330;28;20067;-76
2022/01/15 01:23:16;;;;;;;11.10;6.20;;;1.10;78.30;;;;;;5073329;28;20028;-76
2022/01/15 01:25:46;;;;;;;14.43;7.78;;;1.10;78.10;;;;;;5073357;28;20067;-75
2022/01/15 01:28:20;;;;;;;18.42;7.63;;;1.00;77.40;;;;;;5072997;28;20021;-75
2022/01/15 01:31:11;;;;;;;17.40;8.65;;;1.00;77.10;;;;;;5055210;28;20056;-77
2022/01/15 01:33:41;;;;;;;14.82;8.02;;;1.00;76.90;;;;;;5072497;28;20647;-76
2022/01/15 01:36:21;;;;;;;18.13;8.20;;;1.00;76.80;;;;;;5072887;28;20071;-76
2022/01/15 01:38:54;;;;;;;19.73;8.98;;;0.90;76.50;;;;;;5073094;28;20070;-76
2022/01/15 01:41:22;;;;;;;17.75;7.80;;;0.80;76.40;;;;;;5073034;28;20073;-75
2022/01/15 01:43:56;;;;;;;11.98;6.00;;;0.80;76.60;;;;;;5073144;28;20025;-76
2022/01/15 01:48:52;;;;;;;11.70;5.80;;;0.70;77.60;;;;;;5072706;28;20270;-75
2022/01/15 01:51:33;;;;;;;12.05;5.72;;;0.70;77.70;;;;;;5073005;28;20025;-76
2022/01/15 01:54:04;;;;;;;11.85;5.75;;;0.80;77.50;;;;;;5072855;28;20055;-76
2022/01/15 01:56:31;;;;;;;13.93;6.53;;;0.80;77.20;;;;;;5078923;28;20106;-75
2022/01/15 01:58:57;;;;;;;12.80;6.85;;;0.80;76.90;;;;;;5072968;28;20388;-75
2022/01/15 02:01:23;;;;;;;12.63;5.35;;;0.70;76.80;;;;;;5072683;28;20048;-75
2022/01/15 02:03:49;;;;;;;8.57;4.70;;;0.70;76.60;;;;;;5072782;28;20111;-75
2022/01/15 02:06:17;;;;;;;10.02;4.25;;;0.70;76.70;;;;;;5072840;28;20472;-76
2022/01/15 02:08:42;;;;;;;11.10;4.75;;;0.80;76.70;;;;;;5072794;28;20488;-74
2022/01/15 02:11:08;;;;;;;9.25;4.57;;;0.80;76.70;;;;;;5072736;28;20028;-74
2022/01/15 02:13:38;;;;;;;5.75;3.70;;;0.80;76.50;;;;;;5072367;28;20044;-76
2022/01/15 02:16:04;;;;;;;7.75;3.60;;;0.70;76.30;;;;;;5072704;28;20028;-74
2022/01/15 02:18:30;;;;;;;7.57;4.30;;;0.70;76.30;;;;;;5072571;28;20032;-75
2022/01/15 02:23:34;;;;;;;7.55;4.15;;;0.70;76.70;;;;;;5072524;28;20127;-76
2022/01/15 02:26:05;;;;;;;8.35;4.38;;;0.70;77.00;;;;;;5072719;28;20013;-76
2022/01/15 02:28:36;;;;;;;6.38;3.63;;;0.70;77.10;;;;;;5072617;28;20024;-75
2022/01/15 02:31:07;;;;;;;6.82;3.58;;;0.70;77.20;;;;;;5072538;28;20024;-75
2022/01/15 02:33:34;;;;;;;10.20;4.55;;;0.60;77.20;;;;;;5072283;28;20033;-74
2022/01/15 02:36:13;;;;;;;9.40;3.92;;;0.70;77.10;;;;;;5072291;28;20557;-74
2022/01/15 02:38:40;;;;;;;10.85;4.88;;;0.70;77.00;;;;;;5072387;28;20051;-74
2022/01/15 02:41:05;;;;;;;8.70;3.75;;;0.60;76.70;;;;;;5072815;28;20420;-74
2022/01/15 02:43:33;;;;;;;8.68;4.65;;;0.70;76.60;;;;;;5054409;28;20021;-74
2022/01/15 02:48:00;;;;;;;8.18;4.15;;;0.60;76.20;;;;;;5072469;28;20469;-77
2022/01/15 02:48:58;;;;;;;8.15;4.68;;;0.60;75.80;;;;;;5068342;28;20040;-74
2022/01/15 02:51:35;;;;;;;8.10;3.80;;;0.60;75.60;;;;;;5072406;28;20021;-75
2022/01/15 02:54:02;;;;;;;9.32;3.97;;;0.50;75.50;;;;;;5072494;28;20627;-76
2022/01/15 02:56:39;;;;;;;6.15;3.22;;;0.50;75.50;;;;;;5054513;28;20025;-76
2022/01/15 02:59:07;;;;;;;7.10;3.60;;;0.50;75.50;;;;;;5079159;28;20024;-77
2022/01/15 03:01:33;;;;;;;7.45;3.75;;;0.50;75.80;;;;;;5076239;28;20380;-77
2022/01/15 03:03:59;;;;;;;7.00;3.50;;;0.50;75.80;;;;;;5058156;28;20577;-76
2022/01/15 03:06:25;;;;;;;6.85;3.40;;;0.40;75.70;;;;;;5075966;28;20056;-76
2022/01/15 03:08:52;;;;;;;6.53;3.25;;;0.40;76.00;;;;;;5075969;28;20051;-76
2022/01/15 03:11:18;;;;;;;6.75;3.60;;;0.40;76.20;;;;;;5075871;28;20438;-76
2022/01/15 03:13:45;;;;;;;8.68;3.80;;;0.40;76.20;;;;;;5075782;28;20037;-76
2022/01/15 03:16:14;;;;;;;5.53;2.95;;;0.40;76.40;;;;;;5076131;28;20020;-76
2022/01/15 03:18:40;;;;;;;7.85;4.28;;;0.30;76.60;;;;;;5076224;28;20024;-76
2022/01/15 03:21:06;;;;;;;8.10;4.18;;;0.30;76.60;;;;;;5057972;28;20020;-76
2022/01/15 03:23:32;;;;;;;8.98;4.35;;;0.30;76.30;;;;;;5075669;28;20021;-76
2022/01/15 03:25:58;;;;;;;9.32;4.40;;;0.30;76.30;;;;;;5075820;28;20036;-76
2022/01/15 03:28:23;;;;;;;7.95;4.18;;;0.30;76.10;;;;;;5075856;28;20029;-77
2022/01/15 03:30:49;;;;;;;9.50;5.28;;;0.30;76.00;;;;;;5075703;28;20115;-76
2022/01/15 03:33:15;;;;;;;8.90;4.72;;;0.30;75.80;;;;;;5075502;28;20028;-76
2022/01/15 03:35:41;;;;;;;7.80;4.03;;;0.20;75.60;;;;;;5076757;28;20120;-77
2022/01/15 03:38:07;;;;;;;6.60;3.83;;;0.30;75.70;;;;;;5078562;28;20025;-76
2022/01/15 03:40:34;;;;;;;8.10;4.03;;;0.30;75.50;;;;;;5078286;28;20020;-77
2022/01/15 03:43:00;;;;;;;9.48;3.70;;;0.30;75.00;;;;;;5076910;28;20086;-77
2022/01/15 03:45:26;;;;;;;6.32;3.22;;;0.20;74.70;;;;;;5075548;28;20695;-77
2022/01/15 03:47:52;;;;;;;5.22;2.90;;;0.20;74.50;;;;;;5076491;28;20067;-77
2022/01/15 03:50:18;;;;;;;7.45;3.70;;;0.20;74.30;;;;;;5077995;28;20028;-77
2022/01/15 03:52:44;;;;;;;7.15;4.32;;;0.20;74.20;;;;;;5077639;28;20036;-78
2022/01/15 03:55:11;;;;;;;9.35;4.88;;;0.10;74.30;;;;;;5077222;28;20021;-76
2022/01/15 03:57:38;;;;;;;11.82;4.50;;;0.10;74.40;;;;;;5075661;28;20024;-77
2022/01/15 04:00:07;;;;;;;13.00;5.47;;;0.10;74.20;;;;;;5075520;28;20495;-77
2022/01/15 04:02:32;;;;;;;11.38;5.68;;;0.10;74.20;;;;;;5075463;28;20428;-76
2022/01/15 04:04:58;;;;;;;11.45;5.50;;;0.00;74.10;;;;;;5076037;28;20055;-77
2022/01/15 04:07:23;;;;;;;9.07;4.50;;;0.00;74.20;;;;;;5076082;28;20032;-77
2022/01/15 04:09:49;;;;;;;10.65;4.65;;;0.00;74.30;;;;;;5057704;28;20484;-79
2022/01/15 04:12:14;;;;;;;9.73;4.57;;;-0.10;74.30;;;;;;5076962;28;20431;-77
2022/01/15 04:14:40;;;;;;;10.82;5.20;;;-0.20;74.50;;;;;;5075696;28;20031;-78
2022/01/15 04:17:07;;;;;;;10.40;5.70;;;-0.20;74.80;;;;;;5075216;28;20024;-78
2022/01/15 04:19:33;;;;;;;10.82;5.72;;;-0.20;75.00;;;;;;5075008;28;20028;-78
2022/01/15 04:21:59;;;;;;;11.55;5.82;;;-0.30;74.90;;;;;;5074543;28;20078;-77
2022/01/15 04:24:25;;;;;;;14.23;5.45;;;-0.30;74.80;;;;;;5074372;28;20418;-77
2022/01/15 04:26:50;;;;;;;12.75;6.03;;;-0.40;74.90;;;;;;5088965;28;20023;-78
2022/01/15 04:29:16;;;;;;;10.25;5.15;;;-0.40;75.40;;;;;;5074354;28;20062;-77
2022/01/15 04:31:48;;;;;;;13.38;5.97;;;-0.30;75.90;;;;;;5074256;28;20063;-76
2022/01/15 04:34:27;;;;;;;13.57;6.18;;;-0.30;75.80;;;;;;5074200;28;20031;-76
2022/01/15 04:37:11;;;;;;;11.02;5.40;;;-0.40;75.70;;;;;;5074047;28;20082;-78
2022/01/15 04:39:36;;;;;;;11.52;5.20;;;-0.40;75.90;;;;;;5056190;28;20029;-77
2022/01/15 04:42:02;;;;;;;10.15;4.80;;;-0.40;75.90;;;;;;5073972;28;20469;-77
2022/01/15 04:44:28;;;;;;;8.57;4.53;;;-0.40;76.10;;;;;;5073931;28;20020;-78
2022/01/15 04:46:53;;;;;;;8.95;4.15;;;-0.40;76.20;;;;;;5073948;28;20025;-78
2022/01/15 04:49:20;;;;;;;7.28;3.97;;;-0.40;76.20;;;;;;5073894;28;20081;-77
2022/01/15 04:51:45;;;;;;;9.45;5.50;;;-0.30;76.30;;;;;;5055760;28;20380;-78
2022/01/15 04:54:11;;;;;;;11.15;4.70;;;-0.40;76.00;;;;;;5073697;28;20027;-78
2022/01/15 04:56:36;;;;;;;11.40;4.68;;;-0.40;76.00;;;;;;5055814;28;20016;-78
2022/01/15 04:59:02;;;;;;;8.20;4.03;;;-0.40;75.90;;;;;;5073751;28;20115;-77
2022/01/15 05:01:28;;;;;;;8.65;4.03;;;-0.40;75.80;;;;;;5073629;28;20527;-78
2022/01/15 05:03:54;;;;;;;6.07;3.67;;;-0.40;75.60;;;;;;5073731;28;20397;-79
2022/01/15 05:06:20;;;;;;;5.53;3.75;;;-0.40;75.40;;;;;;5073636;28;20017;-78
2022/01/15 05:08:46;;;;;;;7.72;3.50;;;-0.40;75.10;;;;;;5073588;28;20404;-79
2022/01/15 05:11:27;;;;;;;5.45;3.28;;;-0.40;74.80;;;;;;5073622;28;20120;-79
2022/01/15 05:13:53;;;;;;;7.97;3.42;;;-0.50;74.50;;;;;;5073535;28;20122;-79
2022/01/15 05:16:18;;;;;;;6.88;3.33;;;-0.50;74.40;;;;;;5073452;28;20021;-78
2022/01/15 05:18:44;;;;;;;8.07;3.80;;;-0.50;74.30;;;;;;5073511;28;20043;-78
2022/01/15 05:21:09;;;;;;;9.50;4.20;;;-0.60;74.10;;;;;;5073305;28;20025;-78
2022/01/15 05:23:35;;;;;;;8.43;4.05;;;-0.60;74.20;;;;;;5075202;28;20093;-79
2022/01/15 05:26:00;;;;;;;9.90;3.63;;;-0.60;74.20;;;;;;5077104;28;20025;-79
2022/01/15 05:28:26;;;;;;;7.93;3.85;;;-0.60;74.10;;;;;;5075562;28;20039;-78
2022/01/15 05:30:51;;;;;;;6.38;3.65;;;-0.70;74.20;;;;;;5058189;28;20039;-79
2022/01/15 05:33:17;;;;;;;9.55;4.00;;;-0.70;74.40;;;;;;5076197;28;20469;-79
2022/01/15 05:35:43;;;;;;;7.50;3.40;;;-0.70;74.40;;;;;;5075342;28;20045;-80
2022/01/15 05:38:09;;;;;;;7.22;3.58;;;-0.70;74.40;;;;;;5075054;28;20027;-78
2022/01/15 05:40:35;;;;;;;7.55;3.45;;;-0.80;74.50;;;;;;5072805;28;20050;-78
2022/01/15 05:43:00;;;;;;;8.18;3.63;;;-0.80;74.50;;;;;;5072250;28;20021;-78
2022/01/15 05:45:27;;;;;;;7.70;3.78;;;-0.80;74.50;;;;;;5072978;28;20103;-78
2022/01/15 05:47:52;;;;;;;8.13;3.80;;;-0.80;74.40;;;;;;5072971;28;20025;-78
2022/01/15 05:50:18;;;;;;;9.05;4.10;;;-0.80;74.40;;;;;;5072922;28;20093;-79
2022/01/15 05:52:44;;;;;;;7.35;4.22;;;-0.80;74.30;;;;;;5072967;28;20111;-78
2022/01/15 05:55:10;;;;;;;8.73;4.05;;;-0.80;74.30;;;;;;5072990;28;20032;-78
2022/01/15 05:57:35;;;;;;;6.20;3.75;;;-0.90;73.70;;;;;;5072883;28;20029;-78
2022/01/15 06:00:01;;;;;;;8.25;3.20;;;-1.10;73.80;;;;;;5073027;28;20063;-78
2022/01/15 06:02:26;;;;;;;6.65;3.40;;;-1.10;74.30;;;;;;5072858;28;20032;-78
2022/01/15 06:04:52;;;;;;;7.13;3.40;;;-1.00;74.80;;;;;;5054880;28;20035;-78
2022/01/15 06:07:18;;;;;;;10.05;3.47;;;-1.10;74.90;;;;;;5072862;28;20028;-77
2022/01/15 06:09:43;;;;;;;6.53;3.60;;;-1.10;75.00;;;;;;5072928;28;20024;-77
2022/01/15 06:12:09;;;;;;;6.90;3.60;;;-1.10;74.70;;;;;;5072711;28;20035;-76
2022/01/15 06:14:35;;;;;;;5.88;3.10;;;-1.10;74.60;;;;;;5072754;28;20032;-77
2022/01/15 06:17:03;;;;;;;7.43;3.70;;;-1.20;74.50;;;;;;5054635;28;20017;-78
2022/01/15 06:19:28;;;;;;;7.40;4.05;;;-1.10;74.80;;;;;;5072687;28;20052;-76
2022/01/15 06:21:54;;;;;;;5.35;3.08;;;-1.10;75.80;;;;;;5072737;28;20048;-77
2022/01/15 06:24:20;;;;;;;5.70;3.30;;;-1.10;75.10;;;;;;5072655;28;20074;-77
2022/01/15 06:26:45;;;;;;;5.72;3.58;;;-1.10;74.90;;;;;;5054658;28;20052;-77
2022/01/15 06:29:11;;;;;;;6.75;3.88;;;-1.10;74.80;;;;;;5072698;28;20043;-78
2022/01/15 06:31:37;;;;;;;10.10;4.45;;;-1.00;74.80;;;;;;5072513;28;20453;-78
2022/01/15 06:34:02;;;;;;;10.18;4.20;;;-1.10;75.30;;;;;;5056764;28;20029;-78
2022/01/15 06:36:28;;;;;;;8.50;4.38;;;-1.10;74.30;;;;;;5076377;28;20037;-78
2022/01/15 06:38:54;;;;;;;6.50;3.92;;;-1.10;74.20;;;;;;5076591;28;20091;-77
2022/01/15 06:41:19;;;;;;;7.90;3.80;;;-1.10;74.10;;;;;;5076394;28;20050;-78
2022/01/15 06:43:45;;;;;;;8.20;3.97;;;-1.10;74.10;;;;;;5076454;28;20016;-78
2022/01/15 06:46:11;;;;;;;12.45;5.80;;;-1.10;74.10;;;;;;5058303;28;20029;-78
2022/01/15 06:48:37;;;;;;;9.30;5.43;;;-1.10;73.80;;;;;;5076278;28;20104;-78
2022/01/15 06:51:03;;;;;;;9.93;5.00;;;-1.10;73.50;;;;;;5076092;28;20099;-78
2022/01/15 06:53:29;;;;;;;9.60;4.82;;;-1.20;73.40;;;;;;5076050;28;20497;-77
2022/01/15 06:55:55;;;;;;;8.75;4.80;;;-1.20;73.60;;;;;;5076123;28;20469;-78
2022/01/15 06:58:22;;;;;;;8.43;4.18;;;-1.30;73.90;;;;;;5058012;28;20031;-77
2022/01/15 07:00:48;;;;;;;11.52;5.82;;;-1.30;74.10;;;;;;5076013;28;20020;-78
2022/01/15 07:03:14;;;;;;;14.05;7.45;;;-1.30;74.60;;;;;;5075793;28;20036;-78
2022/01/15 07:05:39;;;;;;;24.70;11.40;;;-1.40;75.00;;;;;;5075712;28;20059;-79
2022/01/15 07:08:05;;;;;;;25.23;10.88;;;-1.50;75.20;;;;;;5074897;28;20036;-78
2022/01/15 07:10:31;;;;;;;38.25;15.73;;;-1.50;75.60;;;;;;5075081;28;20068;-78
2022/01/15 07:12:56;;;;;;;36.92;17.83;;;-1.50;75.60;;;;;;5074460;28;20048;-75
2022/01/15 07:15:22;;;;;;;46.50;20.75;;;-1.50;75.70;;;;;;5074565;28;20488;-75
2022/01/15 07:17:48;;;;;;;55.70;24.98;;;-1.40;75.70;;;;;;5075347;28;20381;-76
2022/01/15 07:20:17;;;;;;;55.60;25.58;;;-1.40;75.70;;;;;;5075557;28;20485;-76
2022/01/15 07:22:43;;;;;;;54.88;26.48;;;-1.40;75.70;;;;;;5075471;28;20401;-77
2022/01/15 07:25:10;;;;;;;52.83;25.60;;;-1.40;75.70;;;;;;5075529;28;20024;-76
2022/01/15 07:27:36;;;;;;;55.78;26.73;;;-1.40;75.70;;;;;;5057495;28;20036;-76
2022/01/15 07:30:05;;;;;;;47.63;24.20;;;-1.40;75.70;;;;;;5075248;28;20099;-76
2022/01/15 07:32:30;;;;;;;38.80;19.73;;;-1.40;75.70;;;;;;5075182;28;20027;-76
2022/01/15 07:34:56;;;;;;;27.73;14.90;;;-1.30;75.90;;;;;;5075280;28;20045;-77
2022/01/15 07:37:21;;;;;;;22.02;12.40;;;-1.40;75.80;;;;;;5075198;28;20036;-76
2022/01/15 07:39:47;;;;;;;22.40;10.88;;;-1.40;75.60;;;;;;5056900;28;20040;-78
2022/01/15 07:42:14;;;;;;;20.45;9.43;;;-1.40;75.50;;;;;;5075223;28;20428;-76
2022/01/15 07:44:39;;;;;;;18.23;10.60;;;-1.30;75.60;;;;;;5073970;28;20469;-77
2022/01/15 07:47:05;;;;;;;21.05;10.68;;;-1.30;75.70;;;;;;5075210;28;20024;-76
2022/01/15 07:49:32;;;;;;;20.80;10.45;;;-1.20;75.60;;;;;;5075120;28;20055;-77
2022/01/15 07:51:59;;;;;;;22.00;11.02;;;-1.10;75.50;;;;;;5074901;28;20025;-76
2022/01/15 07:54:24;;;;;;;17.85;9.57;;;-1.00;75.20;;;;;;5075070;28;20063;-77
2022/01/15 07:56:54;;;;;;;16.13;9.07;;;-0.90;75.00;;;;;;5074952;28;20021;-76
2022/01/15 07:59:23;;;;;;;16.45;9.27;;;-0.90;74.80;;;;;;5074897;28;20074;-75
2022/01/15 08:01:48;;;;;;;15.88;8.75;;;-0.80;74.30;;;;;;5056128;28;20024;-76
2022/01/15 08:04:14;;;;;;;19.17;9.85;;;-0.80;74.00;;;;;;5074593;28;20016;-77
2022/01/15 08:06:41;;;;;;;16.33;8.23;;;-0.70;73.70;;;;;;5074750;28;20028;-78
2022/01/15 08:09:06;;;;;;;12.20;7.45;;;-0.60;73.40;;;;;;5074581;28;20023;-76
2022/01/15 08:11:32;;;;;;;14.57;8.07;;;-0.50;73.30;;;;;;5074378;28;20037;-78
2022/01/15 08:13:57;;;;;;;12.88;7.03;;;-0.40;73.00;;;;;;5074514;28;20090;-76
2022/01/15 08:16:23;;;;;;;14.38;7.28;;;-0.30;73.10;;;;;;5074148;28;20020;-76
2022/01/15 08:18:49;;;;;;;23.13;9.60;;;-0.30;72.90;;;;;;5074571;28;20029;-77
2022/01/15 08:21:14;;;;;;;19.45;8.25;;;-0.20;72.70;;;;;;5074378;28;20020;-75
2022/01/15 08:23:40;;;;;;;24.25;10.63;;;-0.10;76.30;;;;;;5074366;28;20362;-79
2022/01/15 08:26:06;;;;;;;20.50;9.40;;;0.70;91.70;;;;;;5074258;28;20472;-76
2022/01/15 08:28:32;;;;;;;15.35;9.52;;;1.20;86.90;;;;;;5074686;28;20056;-79
2022/01/15 08:30:58;;;;;;;13.68;8.20;;;1.80;78.40;;;;;;5074501;28;20432;-81
2022/01/15 08:33:23;;;;;;;19.77;8.55;;;2.80;73.40;;;;;;5074350;28;20504;-78
2022/01/15 08:35:49;;;;;;;13.50;7.75;;;3.20;69.40;;;;;;5074264;28;20055;-76
2022/01/15 08:38:15;;;;;;;14.07;8.15;;;3.60;66.30;;;;;;5074380;28;20029;-78
2022/01/15 08:40:42;;;;;;;14.60;8.55;;;4.20;64.10;;;;;;5074195;28;20025;-78
2022/01/15 08:43:08;;;;;;;13.55;8.38;;;4.40;61.50;;;;;;5073986;28;20063;-75
2022/01/15 08:45:35;;;;;;;14.68;8.15;;;4.40;59.20;;;;;;5073647;28;20024;-79
2022/01/15 08:48:01;;;;;;;15.45;9.13;;;4.20;57.80;;;;;;5055994;28;20565;-77
2022/01/15 08:50:26;;;;;;;15.25;9.15;;;3.90;57.50;;;;;;5073384;28;20061;-79
2022/01/15 08:52:52;;;;;;;16.63;9.40;;;3.60;58.40;;;;;;5072881;28;20130;-76
2022/01/15 08:55:20;;;;;;;21.55;11.25;;;3.40;59.30;;;;;;5073304;28;20029;-78
2022/01/15 08:57:46;;;;;;;22.02;12.07;;;3.20;59.80;;;;;;5073792;28;20029;-75
2022/01/15 09:00:16;;;;;;;22.42;12.88;;;3.00;60.90;;;;;;5073337;28;20082;-77
2022/01/15 09:02:42;;;;;;;26.73;14.32;;;2.70;62.90;;;;;;5073521;28;20395;-77
2022/01/15 09:05:08;;;;;;;24.90;14.32;;;2.50;64.50;;;;;;5073493;28;20021;-78
2022/01/15 09:07:34;;;;;;;29.90;15.25;;;2.40;65.30;;;;;;5055700;28;20024;-78
2022/01/15 09:10:00;;;;;;;33.13;17.67;;;2.10;66.50;;;;;;5073686;28;20116;-78
2022/01/15 09:12:25;;;;;;;25.92;14.48;;;2.10;67.90;;;;;;5073557;28;20086;-78
2022/01/15 09:15:00;;;;;;;27.25;14.80;;;2.30;68.20;;;;;;5073297;28;20032;-79
2022/01/15 09:17:26;;;;;;;31.92;15.30;;;2.50;67.80;;;;;;5073319;28;20031;-79
2022/01/15 09:19:53;;;;;;;29.13;14.70;;;2.90;67.50;;;;;;5073569;28;20037;-77
2022/01/15 09:22:18;;;;;;;22.20;13.25;;;3.30;66.40;;;;;;5073287;28;20027;-78
2022/01/15 09:24:44;;;;;;;22.48;12.43;;;3.60;65.80;;;;;;5073253;28;20020;-77
2022/01/15 09:30:13;;;;;;;18.55;10.77;;;4.20;62.80;;;;;;5073071;28;20066;-78
2022/01/15 09:32:59;;;;;;;21.02;11.93;;;4.50;61.70;;;;;;5073126;28;20401;-77
2022/01/15 09:35:28;;;;;;;20.77;12.93;;;4.70;59.70;;;;;;5073164;28;20037;-77
2022/01/15 09:37:55;;;;;;;22.60;12.13;;;4.20;60.80;;;;;;5073066;28;20078;-77
2022/01/15 09:40:23;;;;;;;18.00;10.32;;;4.20;62.10;;;;;;5072905;28;20013;-77
2022/01/15 09:42:49;;;;;;;16.63;10.77;;;4.40;62.00;;;;;;5072917;28;20033;-76
2022/01/15 09:45:20;;;;;;;19.88;11.40;;;4.50;61.20;;;;;;5072766;28;20024;-77
2022/01/15 09:47:45;;;;;;;20.42;11.00;;;4.50;61.40;;;;;;5072862;28;20058;-79
2022/01/15 09:50:17;;;;;;;19.42;11.40;;;4.40;62.00;;;;;;5073060;28;20032;-79
2022/01/15 09:52:42;;;;;;;16.60;9.90;;;4.50;62.60;;;;;;5054907;28;20035;-79
2022/01/15 09:55:10;;;;;;;22.08;11.65;;;4.80;62.10;;;;;;5073152;28;20028;-77
2022/01/15 09:57:38;;;;;;;20.52;11.82;;;5.20;61.40;;;;;;5073006;28;20358;-78
2022/01/15 10:00:07;;;;;;;19.42;12.02;;;5.50;61.70;;;;;;5072754;28;20028;-79
2022/01/15 10:02:34;;;;;;;17.67;10.20;;;5.90;60.20;;;;;;5072623;28;20024;-79
2022/01/15 10:04:59;;;;;;;20.83;11.25;;;6.30;58.30;;;;;;5072820;28;20021;-80
2022/01/15 10:07:27;;;;;;;17.15;10.93;;;6.70;56.60;;;;;;5072029;28;20027;-79
2022/01/15 10:09:54;;;;;;;18.13;10.60;;;7.00;54.90;;;;;;5072887;28;20062;-79
2022/01/15 10:12:41;;;;;;;16.85;10.15;;;7.30;53.80;;;;;;5072854;28;20036;-78
2022/01/15 10:15:07;;;;;;;14.63;8.40;;;7.30;52.90;;;;;;5072669;28;20017;-79
2022/01/15 10:17:35;;;;;;;13.38;8.32;;;7.40;52.30;;;;;;5072421;28;20532;-78
2022/01/15 10:20:09;;;;;;;12.77;7.43;;;7.30;52.00;;;;;;5072365;28;20032;-79
2022/01/15 10:22:41;;;;;;;15.77;8.38;;;7.40;52.00;;;;;;5072249;28;20081;-79
2022/01/15 10:25:11;;;;;;;15.15;7.88;;;7.30;51.90;;;;;;5072671;28;20071;-78
2022/01/15 10:27:42;;;;;;;16.67;7.50;;;7.50;52.60;;;;;;5072306;28;20023;-79
2022/01/15 10:30:10;;;;;;;12.43;7.85;;;7.70;51.90;;;;;;5072604;28;20017;-78
2022/01/15 10:32:38;;;;;;;15.00;7.40;;;7.90;51.40;;;;;;5071710;28;20481;-77
2022/01/15 10:35:15;;;;;;;11.52;7.22;;;8.00;49.40;;;;;;5072069;28;20056;-78
2022/01/15 10:38:12;;;;;;;10.75;7.25;;;8.20;49.60;;;;;;5072463;28;20024;-79
2022/01/15 10:40:45;;;;;;;14.48;7.55;;;8.50;49.80;;;;;;5071614;28;20496;-79
2022/01/15 10:43:15;;;;;;;12.30;7.35;;;8.60;48.30;;;;;;5072402;28;20095;-78
2022/01/15 10:45:56;;;;;;;11.40;7.05;;;8.70;47.60;;;;;;5072470;28;20029;-79
2022/01/15 10:48:21;;;;;;;12.32;6.95;;;8.70;47.40;;;;;;5072262;28;20099;-78
2022/01/15 10:50:59;;;;;;;11.30;6.60;;;8.90;46.80;;;;;;5072425;28;20056;-78
2022/01/15 10:53:44;;;;;;;9.23;5.78;;;9.20;45.90;;;;;;5072026;28;20067;-77
2022/01/15 10:56:12;;;;;;;9.50;6.15;;;9.10;45.80;;;;;;5072084;28;20558;-78
2022/01/15 10:58:39;;;;;;;9.05;5.93;;;9.20;45.20;;;;;;5072310;28;20087;-78
2022/01/15 11:01:05;;;;;;;10.20;6.32;;;9.40;44.00;;;;;;5072274;28;20052;-79
2022/01/15 11:03:37;;;;;;;8.23;5.53;;;9.50;44.30;;;;;;5072167;28;20100;-80
2022/01/15 11:06:03;;;;;;;8.40;5.80;;;9.50;44.10;;;;;;5053933;28;20032;-79
2022/01/15 11:08:33;;;;;;;9.15;6.43;;;9.10;44.00;;;;;;5072088;28;20035;-79
2022/01/15 11:11:02;;;;;;;9.43;5.78;;;8.80;45.80;;;;;;5072109;28;20464;-79
2022/01/15 11:13:33;;;;;;;9.52;6.07;;;9.00;46.10;;;;;;5071755;28;20119;-80
2022/01/15 11:16:05;;;;;;;10.52;6.13;;;9.30;45.90;;;;;;5053902;28;20029;-80
2022/01/15 11:18:42;;;;;;;8.30;5.45;;;9.40;45.70;;;;;;5071829;28;20381;-79
2022/01/15 11:21:10;;;;;;;9.15;5.20;;;9.90;45.00;;;;;;5075330;28;20020;-79
2022/01/15 11:23:37;;;;;;;9.43;5.88;;;10.30;43.20;;;;;;5075583;28;20050;-80
2022/01/15 11:26:13;;;;;;;9.10;5.97;;;10.40;41.90;;;;;;5075630;28;20075;-80
2022/01/15 11:28:41;;;;;;;9.20;6.03;;;10.50;41.70;;;;;;5058889;28;20036;-80
2022/01/15 11:31:19;;;;;;;9.30;6.05;;;10.70;41.60;;;;;;5076176;28;20020;-79
2022/01/15 11:33:49;;;;;;;8.07;5.60;;;10.50;42.00;;;;;;5075694;28;20132;-79
2022/01/15 11:36:32;;;;;;;9.50;5.68;;;10.60;41.60;;;;;;5075376;28;20485;-81
2022/01/15 11:38:59;;;;;;;8.05;5.97;;;11.00;40.40;;;;;;5076856;28;20024;-79
2022/01/15 11:41:27;;;;;;;11.05;6.13;;;11.30;39.70;;;;;;5086773;28;20065;-81
2022/01/15 11:43:59;;;;;;;12.13;6.75;;;11.90;38.50;;;;;;5063721;28;20456;-81
2022/01/15 11:46:44;;;;;;;12.48;7.22;;;12.20;37.90;;;;;;5075330;28;20049;-80
2022/01/15 11:49:25;;;;;;;11.18;7.82;;;12.60;37.50;;;;;;5075665;28;20362;-79
2022/01/15 11:51:52;;;;;;;11.85;8.32;;;12.80;36.90;;;;;;5075168;28;20028;-82
2022/01/15 11:54:18;;;;;;;13.38;8.80;;;12.90;37.10;;;;;;5074822;28;20028;-81
2022/01/15 11:56:44;;;;;;;11.98;8.63;;;13.50;36.50;;;;;;5074892;28;20021;-81
2022/01/15 11:59:30;;;;;;;14.73;9.50;;;14.00;35.10;;;;;;5057080;28;20078;-81
2022/01/15 12:01:58;;;;;;;12.55;8.27;;;14.90;34.10;;;;;;5074837;28;20108;-81
2022/01/15 12:04:26;;;;;;;12.05;8.43;;;16.10;33.50;;;;;;5074629;28;20039;-81
2022/01/15 12:07:01;;;;;;;16.55;10.38;;;16.60;30.80;;;;;;5074624;28;20107;-81
2022/01/15 12:09:43;;;;;;;10.90;8.38;;;16.80;29.90;;;;;;5074672;28;20178;-80
2022/01/15 12:12:18;;;;;;;12.88;9.63;;;17.70;29.00;;;;;;5074389;28;20025;-80
2022/01/15 12:14:51;;;;;;;14.02;9.55;;;19.00;26.60;;;;;;5056557;28;20039;-80
2022/01/15 12:17:25;;;;;;;15.30;10.45;;;20.10;24.70;;;;;;5074389;28;20021;-80
2022/01/15 12:19:52;;;;;;;13.05;10.50;;;21.00;22.90;;;;;;5074604;28;20040;-80
2022/01/15 12:22:39;;;;;;;17.40;11.40;;;21.60;21.60;;;;;;5074230;28;20051;-80
2022/01/15 12:25:10;;;;;;;14.63;9.73;;;22.20;20.30;;;;;;5056501;28;20366;-80
2022/01/15 12:27:36;;;;;;;13.55;10.25;;;22.80;20.00;;;;;;5074365;28;20107;-81
2022/01/15 12:30:10;;;;;;;12.05;9.80;;;23.50;19.00;;;;;;5074527;28;20104;-81
2022/01/15 12:32:39;;;;;;;17.25;11.27;;;22.20;19.30;;;;;;5055778;28;20500;-83
2022/01/15 12:35:10;;;;;;;12.73;9.82;;;22.90;19.30;;;;;;5056069;28;20044;-81
2022/01/15 12:37:36;;;;;;;15.23;10.02;;;23.40;18.80;;;;;;5074622;28;20115;-81
2022/01/15 12:40:06;;;;;;;14.50;9.38;;;23.40;18.20;;;;;;5056138;28;20025;-81
2022/01/15 12:42:33;;;;;;;10.98;9.48;;;23.90;17.90;;;;;;5074142;28;20021;-80
2022/01/15 12:45:00;;;;;;;14.45;9.82;;;25.20;17.30;;;;;;5074039;28;20064;-80
2022/01/15 12:47:41;;;;;;;11.32;9.00;;;24.80;16.30;;;;;;5073954;28;20397;-80
2022/01/15 12:50:07;;;;;;;12.50;9.73;;;25.50;16.00;;;;;;5074047;28;20026;-81
2022/01/15 12:52:32;;;;;;;9.32;8.40;;;26.30;15.10;;;;;;5073763;28;20111;-80
2022/01/15 12:54:58;;;;;;;10.65;9.18;;;27.20;14.40;;;;;;5073703;28;20385;-80
2022/01/15 12:57:41;;;;;;;11.13;8.90;;;26.30;13.80;;;;;;5073533;28;20540;-80
2022/01/15 13:00:10;;;;;;;9.15;7.90;;;26.50;13.70;;;;;;5073432;28;20020;-80
2022/01/15 13:02:35;;;;;;;10.10;8.55;;;27.40;13.40;;;;;;5073422;28;20025;-80
2022/01/15 13:05:03;;;;;;;10.35;9.00;;;28.10;13.00;;;;;;5078452;28;20028;-81
2022/01/15 13:07:53;;;;;;;11.23;7.82;;;29.00;12.30;;;;;;5073772;28;20078;-81
2022/01/15 13:10:26;;;;;;;10.75;8.57;;;28.90;11.10;;;;;;5078806;28;20024;-80